createdAt,value
2022-08-16T00:00:27.848Z,99568.13
2022-08-16T00:03:06.264Z,99552.97
2022-08-16T00:05:48.224Z,99560.97
2022-08-16T00:08:35.738Z,99556.31
2022-08-16T00:11:04.409Z,99562.03
2022-08-16T00:13:41.963Z,99559.88
2022-08-16T00:17:00.824Z,99565.66
2022-08-16T00:18:58.239Z,99567.81
2022-08-16T00:21:26.269Z,99567.53
2022-08-16T00:23:56.967Z,99571.16
2022-08-16T00:26:34.926Z,99569.47
2022-08-16T00:29:04.678Z,99568.63
2022-08-16T00:31:47.176Z,99567.19
2022-08-16T00:34:20.100Z,99561.94
2022-08-16T00:36:47.872Z,99569.13
2022-08-16T00:39:15.719Z,99576.53
2022-08-16T00:41:44.633Z,99573.78
2022-08-16T00:44:14.507Z,99574.84
2022-08-16T00:47:02.171Z,99573.19
2022-08-16T00:49:39.497Z,99567.91
2022-08-16T00:52:29.451Z,99569.84
2022-08-16T00:54:58.445Z,99567.91
2022-08-16T00:57:26.185Z,99572.34
2022-08-16T00:59:58.745Z,99562.44
2022-08-16T01:02:31.944Z,99575.09
2022-08-16T01:05:10.855Z,99570.66
2022-08-16T01:07:52.159Z,99569.84
2022-08-16T01:10:21.133Z,99567.09
2022-08-16T01:13:00.280Z,99566.25
2022-08-16T01:15:28.177Z,99580.00
2022-08-16T01:17:57.963Z,99583.56
2022-08-16T01:20:30.633Z,99584.41
2022-08-16T01:22:59.094Z,99583.56
2022-08-16T01:25:33.924Z,99580.59
2022-08-16T01:28:02.407Z,99580.84
2022-08-16T01:30:30.165Z,99582.75
2022-08-16T01:33:02.971Z,99578.09
2022-08-16T01:35:43.232Z,99576.44
2022-08-16T01:38:10.963Z,99576.44
2022-08-16T01:40:47.301Z,99580.00
2022-08-16T01:43:15.067Z,99575.56
2022-08-16T01:45:43.404Z,99578.09
2022-08-16T01:48:20.301Z,99577.25
2022-08-16T01:51:09.391Z,99570.94
2022-08-16T01:53:36.076Z,99568.41
2022-08-16T01:56:08.496Z,99575.81
2022-08-16T01:58:51.532Z,99570.34
2022-08-16T02:01:19.370Z,99564.56
2022-08-16T02:03:50.459Z,99569.25
2022-08-16T02:06:33.640Z,99574.72
2022-08-16T02:09:02.556Z,99576.88
2022-08-16T02:11:47.764Z,99582.38
2022-08-16T02:14:21.429Z,99574.13
2022-08-16T02:16:49.645Z,99579.41
2022-08-16T02:19:18.458Z,99569.50
2022-08-16T02:22:08.745Z,99573.06
2022-08-16T02:24:42.020Z,99573.06
2022-08-16T02:27:10.323Z,99577.97
2022-08-16T02:29:38.239Z,99584.28
2022-08-16T02:32:49.050Z,99583.25
2022-08-16T02:34:57.581Z,99578.81
2022-08-16T02:37:51.267Z,99589.56
2022-08-16T02:40:16.301Z,99590.63
2022-08-16T02:42:44.368Z,99587.03
2022-08-16T02:45:12.114Z,99584.06
2022-08-16T02:48:00.174Z,99594.22
2022-08-16T02:50:55.092Z,99598.03
2022-08-16T02:53:18.317Z,99591.72
2022-08-16T02:55:51.423Z,99599.72
2022-08-16T02:58:19.189Z,99595.06
2022-08-16T03:00:50.198Z,99595.88
2022-08-16T03:03:18.171Z,99587.88
2022-08-16T03:05:50.068Z,99595.06
2022-08-16T03:08:51.263Z,99594.47
2022-08-16T03:11:16.435Z,99598.03
2022-08-16T03:13:45.855Z,99596.38
2022-08-16T03:16:33.034Z,99597.22
2022-08-16T03:19:03.313Z,99590.06
2022-08-16T03:21:37.930Z,99595.28
2022-08-16T03:24:06.477Z,99588.72
2022-08-16T03:26:54.184Z,99588.13
2022-08-16T03:29:27.380Z,99589.19
2022-08-16T03:31:59.307Z,99597.22
2022-08-16T03:34:27.318Z,99596.38
2022-08-16T03:36:55.326Z,99608.19
2022-08-16T03:39:23.128Z,99610.94
2022-08-16T03:41:59.623Z,99617.25
2022-08-16T03:44:43.984Z,99619.19
2022-08-16T03:47:19.244Z,99624.09
2022-08-16T03:49:51.241Z,99628.53
2022-08-16T03:52:20.155Z,99624.91
2022-08-16T03:54:57.514Z,99627.66
2022-08-16T03:57:32.029Z,99633.16
2022-08-16T04:00:12.337Z,99624.09
2022-08-16T04:03:02.507Z,99631.50
2022-08-16T04:05:33.075Z,99627.66
2022-08-16T04:08:02.244Z,99637.81
2022-08-16T04:10:49.957Z,99637.81
2022-08-16T04:13:20.729Z,99643.31
2022-08-16T04:16:07.313Z,99638.91
2022-08-16T04:18:36.882Z,99641.38
2022-08-16T04:21:04.689Z,99642.47
2022-08-16T04:23:32.453Z,99637.81
2022-08-16T04:26:01.916Z,99640.56
2022-08-16T04:28:55.675Z,99646.66
2022-08-16T04:31:17.901Z,99646.44
2022-08-16T04:33:50.639Z,99650.00
2022-08-16T04:36:20.066Z,99651.66
2022-08-16T04:38:49.968Z,99653.59
2022-08-16T04:41:18.133Z,99658.00
2022-08-16T04:43:46.199Z,99657.75
2022-08-16T04:46:29.944Z,99647.88
2022-08-16T04:49:03.005Z,99650.84
2022-08-16T04:51:35.987Z,99650.84
2022-08-16T04:54:05.121Z,99656.09
2022-08-16T04:56:33.442Z,99657.75
2022-08-16T04:59:01.508Z,99658.38
2022-08-16T05:01:55.949Z,99658.38
2022-08-16T05:04:19.300Z,99652.88
2022-08-16T05:06:47.603Z,99654.53
2022-08-16T05:09:16.419Z,99660.03
2022-08-16T05:11:44.310Z,99659.19
2022-08-16T05:14:12.171Z,99662.78
2022-08-16T05:16:48.123Z,99663.03
2022-08-16T05:19:19.981Z,99664.69
2022-08-16T05:21:47.986Z,99666.00
2022-08-16T05:24:24.576Z,99672.09
2022-08-16T05:26:52.577Z,99672.34
2022-08-16T05:29:20.600Z,99667.66
2022-08-16T05:31:53.372Z,99680.34
2022-08-16T05:34:22.506Z,99680.34
2022-08-16T05:36:51.325Z,99680.34
2022-08-16T05:39:20.432Z,99684.75
2022-08-16T05:41:48.964Z,99690.25
2022-08-16T05:44:24.076Z,99695.75
2022-08-16T05:46:52.536Z,99696.34
2022-08-16T05:49:22.545Z,99695.28
2022-08-16T05:51:51.101Z,99701.84
2022-08-16T05:54:25.265Z,99697.19
2022-08-16T05:56:53.774Z,99709.00
2022-08-16T05:59:21.948Z,99710.69
2022-08-16T06:01:50.648Z,99712.34
2022-08-16T06:04:36.691Z,99713.44
2022-08-16T06:07:09.080Z,99706.88
2022-08-16T06:09:52.557Z,99712.34
2022-08-16T06:12:28.067Z,99710.22
2022-08-16T06:14:58.977Z,99713.78
2022-08-16T06:17:41.565Z,99711.03
2022-08-16T06:20:11.220Z,99722.88
2022-08-16T06:22:41.012Z,99732.81
2022-08-16T06:25:12.519Z,99736.38
2022-08-16T06:27:49.651Z,99738.03
2022-08-16T06:30:28.721Z,99731.97
2022-08-16T06:32:56.719Z,99722.88
2022-08-16T06:35:24.608Z,99736.38
2022-08-16T06:37:52.633Z,99739.97
2022-08-16T06:40:20.386Z,99735.91
2022-08-16T06:42:48.579Z,99734.22
2022-08-16T06:45:16.355Z,99736.72
2022-08-16T06:47:52.947Z,99740.56
2022-08-16T06:50:28.858Z,99741.88
2022-08-16T06:53:00.257Z,99742.72
2022-08-16T06:55:34.451Z,99742.47
2022-08-16T06:58:08.210Z,99742.22
2022-08-16T07:00:37.578Z,99750.25
2022-08-16T07:03:27.682Z,99750.47
2022-08-16T07:05:53.940Z,99749.03
2022-08-16T07:08:21.819Z,99757.88
2022-08-16T07:10:49.494Z,99761.47
2022-08-16T07:13:26.691Z,99765.91
2022-08-16T07:16:05.712Z,99763.38
2022-08-16T07:18:33.454Z,99771.63
2022-08-16T07:21:02.267Z,99756.56
2022-08-16T07:23:37.489Z,99754.91
2022-08-16T07:26:07.052Z,99762.56
2022-08-16T07:28:35.452Z,99766.75
2022-08-16T07:31:03.424Z,99780.69
2022-08-16T07:33:52.295Z,99765.91
2022-08-16T07:36:22.170Z,99782.97
2022-08-16T07:38:50.196Z,99772.56
2022-08-16T07:41:18.592Z,99789.06
2022-08-16T07:43:47.525Z,99795.66
2022-08-16T07:46:39.694Z,99787.16
2022-08-16T07:49:03.782Z,99791.59
2022-08-16T07:51:33.131Z,99790.75
2022-08-16T07:54:09.500Z,99787.53
2022-08-16T07:56:38.234Z,99790.28
2022-08-16T07:59:05.984Z,99792.78
2022-08-16T08:01:33.681Z,99792.78
2022-08-16T08:04:02.921Z,99797.44
2022-08-16T08:06:31.440Z,99793.63
2022-08-16T08:08:59.581Z,99798.03
2022-08-16T08:11:27.993Z,99794.47
2022-08-16T08:13:56.580Z,99799.97
2022-08-16T08:16:30.742Z,99801.88
2022-08-16T08:19:01.094Z,99798.88
2022-08-16T08:21:59.159Z,99796.13
2022-08-16T08:24:18.112Z,99796.13
2022-08-16T08:26:50.051Z,99796.13
2022-08-16T08:29:22.916Z,99801.41
2022-08-16T08:31:53.255Z,99805.81
2022-08-16T08:34:23.137Z,99809.38
2022-08-16T08:36:54.483Z,99810.25
2022-08-16T08:39:22.688Z,99807.50
2022-08-16T08:41:51.359Z,99807.50
2022-08-16T08:44:28.595Z,99809.38
2022-08-16T08:47:00.374Z,99813.22
2022-08-16T08:49:46.016Z,99810.47
2022-08-16T08:52:34.603Z,99815.97
2022-08-16T08:55:05.025Z,99813.44
2022-08-16T08:57:37.396Z,99815.16
2022-08-16T09:00:13.208Z,99815.16
2022-08-16T09:02:41.709Z,99809.66
2022-08-16T09:05:15.422Z,99814.06
2022-08-16T09:08:00.941Z,99807.72
2022-08-16T09:10:29.860Z,99809.66
2022-08-16T09:12:57.768Z,99813.44
2022-08-16T09:15:26.449Z,99804.16
2022-08-16T09:18:01.157Z,99805.22
2022-08-16T09:20:58.447Z,99811.56
2022-08-16T09:23:27.507Z,99801.63
2022-08-16T09:25:55.422Z,99803.31
2022-08-16T09:29:13.527Z,99810.47
2022-08-16T09:31:11.114Z,99819.56
2022-08-16T09:33:39.371Z,99822.31
2022-08-16T09:36:11.803Z,99809.16
2022-08-16T09:38:40.919Z,99809.16
2022-08-16T09:41:14.860Z,99803.66
2022-08-16T09:43:58.541Z,99807.50
2022-08-16T09:46:44.377Z,99805.59
2022-08-16T09:49:16.751Z,99805.81
2022-08-16T09:51:47.917Z,99802.00
2022-08-16T09:54:21.020Z,99799.00
2022-08-16T09:56:52.234Z,99800.44
2022-08-16T09:59:22.478Z,99795.41
2022-08-16T10:01:51.618Z,99792.19
2022-08-16T10:04:31.430Z,99803.19
2022-08-16T10:07:02.763Z,99791.84
2022-08-16T10:09:53.859Z,99796.50
2022-08-16T10:12:42.777Z,99802.84
2022-08-16T10:15:15.094Z,99788.25
2022-08-16T10:17:45.053Z,99791.22
2022-08-16T10:20:28.289Z,99803.06
2022-08-16T10:23:03.661Z,99801.13
2022-08-16T10:27:16.173Z,99799.47
2022-08-16T10:28:31.832Z,99788.47
2022-08-16T10:30:59.891Z,99787.66
2022-08-16T10:33:29.279Z,99780.47
2022-08-16T10:36:02.527Z,99784.91
2022-08-16T10:38:33.242Z,99781.31
2022-08-16T10:41:04.672Z,99792.31
2022-08-16T10:43:32.427Z,99790.16
2022-08-16T10:46:01.392Z,99786.81
2022-08-16T10:48:29.464Z,99786.81
2022-08-16T10:50:59.304Z,99796.13
2022-08-16T10:53:32.685Z,99791.47
2022-08-16T10:56:01.559Z,99779.63
2022-08-16T10:58:34.383Z,99794.22
2022-08-16T11:01:24.975Z,99795.28
2022-08-16T11:03:54.104Z,99790.88
2022-08-16T11:06:26.930Z,99785.38
2022-08-16T11:14:31.961Z,99784.78
2022-08-16T11:17:02.316Z,99782.03
2022-08-16T11:19:31.176Z,99781.78
2022-08-16T11:22:39.445Z,99790.88
2022-08-16T11:25:59.590Z,99789.19
2022-08-16T11:27:55.702Z,99791.13
2022-08-16T11:30:28.202Z,99782.63
2022-08-16T11:33:05.524Z,99792.53
2022-08-16T11:38:47.392Z,99804.97
2022-08-16T11:41:08.830Z,99798.66
2022-08-16T11:43:37.267Z,99794.81
2022-08-16T11:46:45.081Z,99787.66
2022-08-16T11:48:53.008Z,99782.16
2022-08-16T11:51:20.749Z,99790.16
2022-08-16T11:53:50.105Z,99801.41
2022-08-16T11:56:28.581Z,99800.91
2022-08-16T11:59:07.324Z,99796.50
2022-08-16T12:01:55.509Z,99786.56
2022-08-16T12:04:23.198Z,99786.56
2022-08-16T12:06:53.674Z,99791.56
2022-08-16T12:09:22.585Z,99787.16
2022-08-16T12:11:52.787Z,99793.75
2022-08-16T12:14:22.690Z,99792.66
2022-08-16T12:16:55.288Z,99789.69
2022-08-16T12:19:35.252Z,99786.69
2022-08-16T12:22:05.354Z,99788.59
2022-08-16T12:24:47.965Z,99798.78
2022-08-16T12:27:20.152Z,99802.56
2022-08-16T12:29:51.246Z,99796.84
2022-08-16T12:32:35.732Z,99793.00
2022-08-16T12:35:07.544Z,99790.75
2022-08-16T12:37:35.399Z,99796.84
2022-08-16T12:40:03.184Z,99792.66
2022-08-16T12:42:35.732Z,99789.91
2022-08-16T12:45:03.630Z,99785.03
2022-08-16T12:47:49.065Z,99785.03
2022-08-16T12:50:16.888Z,99780.84
2022-08-16T12:52:53.063Z,99784.66
2022-08-16T12:55:21.178Z,99772.81
2022-08-16T12:57:58.029Z,99777.47
2022-08-16T13:00:33.281Z,99780.00
2022-08-16T13:03:01.483Z,99772.81
2022-08-16T13:05:29.488Z,99772.81
2022-08-16T13:07:58.626Z,99775.56
2022-08-16T13:10:38.135Z,99774.50
2022-08-16T13:13:06.905Z,99770.06
2022-08-16T13:15:55.727Z,99771.16
2022-08-16T13:18:32.647Z,99761.81
2022-08-16T13:21:02.858Z,99767.31
2022-08-16T13:23:30.634Z,99769.00
2022-08-16T13:25:58.668Z,99763.50
2022-08-16T13:28:26.399Z,99765.41
2022-08-16T13:30:54.118Z,99759.91
2022-08-16T13:33:26.027Z,99757.53
2022-08-16T13:35:57.721Z,99763.84
2022-08-16T13:38:27.492Z,99759.19
2022-08-16T13:40:59.072Z,99771.88
2022-08-16T13:43:26.954Z,99763.84
2022-08-16T13:45:55.461Z,99771.28
2022-08-16T13:48:25.273Z,99763.84
2022-08-16T13:50:53.659Z,99757.53
2022-08-16T13:53:24.474Z,99768.53
2022-08-16T13:55:57.935Z,99760.28
2022-08-16T13:58:37.395Z,99757.53
2022-08-16T14:01:14.645Z,99765.78
2022-08-16T14:03:44.774Z,99757.75
2022-08-16T14:06:12.853Z,99759.69
2022-08-16T14:08:42.589Z,99749.78
2022-08-16T14:11:14.540Z,99751.66
2022-08-16T14:13:42.350Z,99750.00
2022-08-16T14:16:24.163Z,99745.31
2022-08-16T14:18:57.917Z,99749.16
2022-08-16T14:21:25.710Z,99750.81
2022-08-16T14:23:53.439Z,99758.00
2022-08-16T14:26:21.436Z,99752.53
2022-08-16T14:28:50.428Z,99749.78
2022-08-16T14:31:18.631Z,99745.31
2022-08-16T14:33:46.760Z,99749.78
2022-08-16T14:36:25.058Z,99745.94
2022-08-16T14:38:57.439Z,99748.06
2022-08-16T14:41:25.232Z,99749.78
2022-08-16T14:43:52.958Z,99747.84
2022-08-16T14:46:20.709Z,99748.44
2022-08-16T14:48:48.451Z,99739.34
2022-08-16T14:51:16.832Z,99746.53
2022-08-16T14:53:45.318Z,99737.69
2022-08-16T14:56:17.492Z,99743.19
2022-08-16T14:59:01.115Z,99741.53
2022-08-16T15:01:57.591Z,99741.03
2022-08-16T15:04:32.559Z,99742.34
2022-08-16T15:07:05.783Z,99741.53
2022-08-16T15:09:44.733Z,99742.34
2022-08-16T15:12:31.155Z,99739.59
2022-08-16T15:15:01.534Z,99734.69
2022-08-16T15:17:33.821Z,99736.03
2022-08-16T15:20:08.661Z,99740.44
2022-08-16T15:22:37.382Z,99737.69
2022-08-16T15:25:05.126Z,99742.94
2022-08-16T15:27:33.597Z,99741.88
2022-08-16T15:30:44.675Z,99751.53
2022-08-16T15:32:51.450Z,99747.13
2022-08-16T15:35:19.243Z,99747.69
2022-08-16T15:37:48.144Z,99744.72
2022-08-16T15:40:26.707Z,99747.47
2022-08-16T15:43:02.793Z,99742.81
2022-08-16T15:45:53.682Z,99735.38
2022-08-16T15:48:28.451Z,99735.38
2022-08-16T15:50:56.975Z,99743.91
2022-08-16T15:53:24.836Z,99740.06
2022-08-16T15:55:52.924Z,99738.97
2022-08-16T15:58:34.995Z,99741.72
2022-08-16T16:01:06.011Z,99735.66
2022-08-16T16:03:34.635Z,99741.72
2022-08-16T16:06:03.801Z,99749.97
2022-08-16T16:08:32.467Z,99745.56
2022-08-16T16:11:00.627Z,99746.38
2022-08-16T16:13:31.096Z,99751.06
2022-08-16T16:15:58.995Z,99753.81
2022-08-16T16:18:30.039Z,99752.16
2022-08-16T16:20:57.946Z,99751.06
2022-08-16T16:23:26.959Z,99752.72
2022-08-16T16:25:57.132Z,99749.97
2022-08-16T16:29:06.376Z,99749.41
2022-08-16T16:31:13.247Z,99744.38
2022-08-16T16:33:42.005Z,99747.13
2022-08-16T16:36:11.439Z,99748.91
2022-08-16T16:38:44.155Z,99742.59
2022-08-16T16:41:12.207Z,99741.72
2022-08-16T16:43:40.876Z,99749.53
2022-08-16T16:46:39.085Z,99743.41
2022-08-16T16:48:56.555Z,99753.31
2022-08-16T16:51:28.172Z,99753.31
2022-08-16T16:53:57.018Z,99755.63
2022-08-16T16:56:31.286Z,99754.56
2022-08-16T16:59:01.737Z,99754.78
2022-08-16T17:01:41.184Z,99758.38
2022-08-16T17:04:22.275Z,99754.56
2022-08-16T17:06:53.546Z,99758.13
2022-08-16T17:09:25.195Z,99761.38
2022-08-16T17:11:55.451Z,99760.06
2022-08-16T17:14:33.709Z,99752.16
2022-08-16T17:17:02.280Z,99759.34
2022-08-16T17:19:31.719Z,99757.66
2022-08-16T17:21:59.781Z,99766.72
2022-08-16T17:24:31.295Z,99761.22
2022-08-16T17:27:07.644Z,99757.91
2022-08-16T17:29:42.729Z,99766.16
2022-08-16T17:32:33.934Z,99769.97
2022-08-16T17:35:10.185Z,99765.56
2022-08-16T17:37:54.204Z,99767.47
2022-08-16T17:40:41.114Z,99780.75
2022-08-16T17:43:10.915Z,99784.31
2022-08-16T17:45:39.371Z,99778.81
2022-08-16T17:48:07.247Z,99785.63
2022-08-16T17:50:35.083Z,99784.19
2022-08-16T17:53:03.731Z,99784.19
2022-08-16T17:55:31.473Z,99779.31
2022-08-16T17:57:59.293Z,99787.28
2022-08-16T18:00:27.348Z,99786.84
2022-08-16T18:02:58.048Z,99785.53
2022-08-16T18:05:26.117Z,99790.53
2022-08-16T18:07:53.970Z,99793.50
2022-08-16T18:10:32.883Z,99798.41
2022-08-16T18:13:03.903Z,99789.81
2022-08-16T18:15:32.774Z,99789.81
2022-08-16T18:18:00.650Z,99791.47
2022-08-16T18:20:45.951Z,99788.28
2022-08-16T18:23:15.079Z,99789.31
2022-08-16T18:25:43.129Z,99795.44
2022-08-16T18:28:10.883Z,99798.66
2022-08-16T18:30:38.658Z,99793.78
2022-08-16T18:33:06.576Z,99796.53
2022-08-16T18:35:34.290Z,99800.94
2022-08-16T18:38:01.991Z,99798.19
2022-08-16T18:40:30.279Z,99796.53
2022-08-16T18:42:58.008Z,99802.47
2022-08-16T18:45:25.811Z,99807.75
2022-08-16T18:48:03.198Z,99807.97
2022-08-16T18:51:04.065Z,99803.56
2022-08-16T18:53:19.012Z,99817.81
2022-08-16T18:55:46.768Z,99821.59
2022-08-16T18:58:14.645Z,99819.72
2022-08-16T19:00:55.916Z,99824.38
2022-08-16T19:03:25.627Z,99827.56
2022-08-16T19:05:53.360Z,99840.28
2022-08-16T19:08:21.104Z,99837.53
2022-08-16T19:10:48.850Z,99843.88
2022-08-16T19:13:16.574Z,99843.88
2022-08-16T19:15:44.500Z,99855.69
2022-08-16T19:18:12.236Z,99853.16
2022-08-16T19:20:39.963Z,99857.63
2022-08-16T19:23:10.494Z,99850.19
2022-08-16T19:25:48.311Z,99852.94
2022-08-16T19:28:49.772Z,99855.91
2022-08-16T19:31:04.875Z,99861.38
2022-08-16T19:33:32.721Z,99858.91
2022-08-16T19:36:00.625Z,99866.06
2022-08-16T19:38:30.187Z,99862.28
2022-08-16T19:40:57.919Z,99874.94
2022-08-16T19:43:25.792Z,99866.06
2022-08-16T19:45:53.786Z,99871.22
2022-08-16T19:48:21.504Z,99875.88
2022-08-16T19:50:49.262Z,99881.38
2022-08-16T19:53:19.209Z,99873.34
2022-08-16T19:55:47.616Z,99878.84
2022-08-16T19:58:15.483Z,99869.56
2022-08-16T20:00:44.048Z,99882.22
2022-08-16T20:03:13.553Z,99881.38
2022-08-16T20:05:41.393Z,99872.53
2022-08-16T20:08:09.105Z,99874.44
2022-08-16T20:10:36.927Z,99873.34
2022-08-16T20:13:04.646Z,99868.13
2022-08-16T20:15:32.422Z,99874.66
2022-08-16T20:18:01.984Z,99881.84
2022-08-16T20:20:29.699Z,99878.50
2022-08-16T20:22:58.022Z,99886.75
2022-08-16T20:25:28.471Z,99880.16
2022-08-16T20:27:56.396Z,99889.50
2022-08-16T20:30:24.192Z,99884.00
2022-08-16T20:32:52.156Z,99888.41
2022-08-16T20:35:20.057Z,99891.16
2022-08-16T20:37:47.829Z,99889.50
2022-08-16T20:40:27.916Z,99890.34
2022-08-16T20:42:57.935Z,99882.56
2022-08-16T20:45:27.402Z,99883.19
2022-08-16T20:47:55.465Z,99882.31
2022-08-16T20:50:23.591Z,99884.00
2022-08-16T20:52:51.617Z,99891.16
2022-08-16T21:01:03.225Z,99888.06
2022-08-16T21:03:31.077Z,99883.41
2022-08-16T21:05:58.778Z,99887.81
2022-08-16T21:08:46.524Z,99886.16
2022-08-16T21:11:14.233Z,99894.63
2022-08-16T21:13:43.165Z,99891.66
2022-08-16T21:16:10.949Z,99890.81
2022-08-16T21:18:38.690Z,99892.25
2022-08-16T21:21:06.423Z,99896.06
2022-08-16T21:23:34.120Z,99892.47
2022-08-16T21:26:01.830Z,99890.81
2022-08-16T21:28:38.698Z,99898.22
2022-08-16T21:31:10.888Z,99894.63
2022-08-16T21:33:38.564Z,99896.53
2022-08-16T21:36:06.460Z,99897.38
2022-08-16T21:38:34.197Z,99902.63
2022-08-16T21:41:01.875Z,99900.72
2022-08-16T21:43:32.326Z,99900.97
2022-08-16T21:46:00.211Z,99900.97
2022-08-16T21:48:35.278Z,99900.97
2022-08-16T21:51:04.053Z,99899.28
2022-08-16T21:53:31.789Z,99896.53
2022-08-16T21:55:59.506Z,99913.03
2022-08-16T21:58:28.622Z,99913.03
2022-08-16T22:00:56.388Z,99913.03
2022-08-16T22:03:24.715Z,99922.97
2022-08-16T22:06:11.843Z,99915.56
2022-08-16T22:08:50.427Z,99913.03
2022-08-16T22:11:18.682Z,99921.28
2022-08-16T22:13:51.218Z,99922.13
2022-08-16T22:16:26.264Z,99921.53
2022-08-16T22:18:53.978Z,99914.13
2022-08-16T22:21:21.714Z,99924.28
2022-08-16T22:23:56.919Z,99928.91
2022-08-16T22:26:30.004Z,99924.28
2022-08-16T22:28:58.877Z,99928.91
2022-08-16T22:31:27.456Z,99931.66
2022-08-16T22:33:56.592Z,99933.59
2022-08-16T22:36:28.720Z,99926.16
2022-08-16T22:38:57.965Z,99931.66
2022-08-16T22:41:26.138Z,99930.63
2022-08-16T22:43:53.800Z,99931.66
2022-08-16T22:46:23.168Z,99918.78
2022-08-16T22:48:51.065Z,99926.78
2022-08-16T22:51:18.775Z,99927.88
2022-08-16T22:53:46.667Z,99923.41
2022-08-16T22:56:15.541Z,99920.66
2022-08-16T22:58:43.485Z,99924.50
2022-08-16T23:01:11.663Z,99917.91
2022-08-16T23:03:39.377Z,99915.44
2022-08-16T23:06:07.092Z,99919.00
2022-08-16T23:08:39.651Z,99916.25
2022-08-16T23:11:09.077Z,99917.34
2022-08-16T23:13:36.818Z,99916.25
2022-08-16T23:16:10.654Z,99922.59
2022-08-16T23:18:39.420Z,99914.59
2022-08-16T23:21:07.119Z,99910.16
2022-08-16T23:23:34.862Z,99916.47
2022-08-16T23:26:02.520Z,99907.19
2022-08-16T23:28:50.523Z,99917.34
2022-08-16T23:31:18.173Z,99914.59
2022-08-16T23:33:45.993Z,99916.25
2022-08-16T23:36:13.707Z,99910.75
2022-08-16T23:38:41.843Z,99916.25
2022-08-16T23:41:11.632Z,99910.97
2022-08-16T23:43:41.893Z,99910.16
2022-08-16T23:46:11.667Z,99923.06
2022-08-16T23:50:02.448Z,99918.41
2022-08-16T23:51:27.049Z,99912.53
2022-08-16T23:53:55.734Z,99910.41
2022-08-16T23:56:23.525Z,99915.03
2022-08-16T23:58:54.402Z,99916.72
